Time;durP1;ratioP1;P1;durP2;ratioP2;P2;SDS_P1;SDS_P2;PMS_P1;PMS_P2;Temp;Humidity;BMP_temperature;BMP_pressure;BME280_temperature;BME280_humidity;BME280_pressure;Samples;Min_cycle;Max_cycle;Signal;HPM_P1;HPM_P2
2022/04/08 00:00:12;;;;;;;;;;;;;;;;;;5154062;27;982;-59
2022/04/08 00:02:41;;;;;;;;;;;;;;;;;;5154091;27;1119;-60
2022/04/08 00:05:09;;;;;;;;;;;;;;;;;;5154205;27;1020;-60
2022/04/08 00:07:35;;;;;;;;;;;;;;;;;;5135604;27;892;-60
2022/04/08 00:10:00;;;;;;;;;;;;;;;;;;5153262;27;923;-59
2022/04/08 00:12:26;;;;;;;;;;;;;;;;;;5153909;27;836;-60
2022/04/08 00:14:51;;;;;;;;;;;;;;;;;;5153446;27;1913;-59
2022/04/08 00:17:16;;;;;;;;;;;;;;;;;;5154003;27;812;-59
2022/04/08 00:19:42;;;;;;;;;;;;;;;;;;5153594;27;820;-60
2022/04/08 00:22:07;;;;;;;;;;;;;;;;;;5153812;27;914;-59
2022/04/08 00:24:32;;;;;;;;;;;;;;;;;;5153772;27;797;-60
2022/04/08 00:26:58;;;;;;;;;;;;;;;;;;5153581;27;818;-59
2022/04/08 00:29:23;;;;;;;;;;;;;;;;;;5134863;27;883;-59
2022/04/08 00:31:50;;;;;;;;;;;;;;;;;;5134327;27;887;-59
2022/04/08 00:34:15;;;;;;;;;;;;;;;;;;5153666;27;1902;-60
2022/04/08 00:36:40;;;;;;;;;;;;;;;;;;5153153;27;1111;-60
2022/04/08 00:39:06;;;;;;;;;;;;;;;;;;5153607;27;879;-60
2022/04/08 00:41:31;;;;;;;;;;;;;;;;;;5153308;27;947;-60
2022/04/08 00:43:56;;;;;;;;;;;;;;;;;;5153171;27;894;-60
2022/04/08 00:46:21;;;;;;;;;;;;;;;;;;5153750;27;828;-60
2022/04/08 00:48:47;;;;;;;;;;;;;;;;;;5153184;27;758;-60
2022/04/08 00:51:13;;;;;;;;;;;;;;;;;;5153507;27;973;-60
2022/04/08 00:53:38;;;;;;;;;;;;;;;;;;5153369;27;1960;-59
2022/04/08 00:56:03;;;;;;;;;;;;;;;;;;5152554;27;842;-60
2022/04/08 00:58:30;;;;;;;;;;;;;;;;;;5153444;27;1628;-59
2022/04/08 01:00:55;;;;;;;;;;;;;;;;;;5152861;27;808;-60
2022/04/08 01:03:20;;;;;;;;;;;;;;;;;;5153294;27;961;-60
2022/04/08 01:05:47;;;;;;;;;;;;;;;;;;5152519;27;891;-60
2022/04/08 01:08:14;;;;;;;;;;;;;;;;;;5152600;27;828;-60
2022/04/08 01:10:40;;;;;;;;;;;;;;;;;;5152733;27;876;-60
2022/04/08 01:13:05;;;;;;;;;;;;;;;;;;5133835;27;1241;-59
2022/04/08 01:15:30;;;;;;;;;;;;;;;;;;5152536;27;1958;-59
2022/04/08 01:17:56;;;;;;;;;;;;;;;;;;5151931;27;1182;-60
2022/04/08 01:20:21;;;;;;;;;;;;;;;;;;5152723;27;855;-60
2022/04/08 01:22:46;;;;;;;;;;;;;;;;;;5152277;27;879;-60
2022/04/08 01:25:12;;;;;;;;;;;;;;;;;;5152277;27;836;-60
2022/04/08 01:27:38;;;;;;;;;;;;;;;;;;5152244;27;848;-60
2022/04/08 01:30:04;;;;;;;;;;;;;;;;;;5151946;27;847;-60
2022/04/08 01:32:30;;;;;;;;;;;;;;;;;;5152531;27;1026;-60
2022/04/08 01:34:55;;;;;;;;;;;;;;;;;;5151570;27;1893;-60
2022/04/08 01:37:21;;;;;;;;;;;;;;;;;;5152356;27;1173;-60
2022/04/08 01:39:46;;;;;;;;;;;;;;;;;;5151791;27;809;-60
2022/04/08 01:42:11;;;;;;;;;;;;;;;;;;5151958;27;765;-60
2022/04/08 01:44:37;;;;;;;;;;;;;;;;;;5152365;27;753;-60
2022/04/08 01:47:03;;;;;;;;;;;;;;;;;;5151863;27;844;-60
2022/04/08 01:49:28;;;;;;;;;;;;;;;;;;5152662;27;776;-60
2022/04/08 01:51:53;;;;;;;;;;;;;;;;;;5152635;27;1073;-59
2022/04/08 01:54:19;;;;;;;;;;;;;;;;;;5152618;27;1913;-59
2022/04/08 01:56:44;;;;;;;;;;;;;;;;;;5152006;27;848;-60
2022/04/08 01:59:09;;;;;;;;;;;;;;;;;;5152308;27;831;-60
2022/04/08 02:01:35;;;;;;;;;;;;;;;;;;5152285;27;801;-60
2022/04/08 02:04:00;;;;;;;;;;;;;;;;;;5151988;27;1268;-60
2022/04/08 02:06:25;;;;;;;;;;;;;;;;;;5153026;27;773;-60
2022/04/08 02:08:52;;;;;;;;;;;;;;;;;;5156162;27;843;-60
2022/04/08 02:11:17;;;;;;;;;;;;;;;;;;5156029;27;859;-60
2022/04/08 02:13:42;;;;;;;;;;;;;;;;;;5137326;27;1964;-60
2022/04/08 02:16:07;;;;;;;;;;;;;;;;;;5156548;27;938;-60
2022/04/08 02:18:33;;;;;;;;;;;;;;;;;;5156520;27;931;-60
2022/04/08 02:20:58;;;;;;;;;;;;;;;;;;5156352;27;898;-60
2022/04/08 02:23:24;;;;;;;;;;;;;;;;;;5137571;27;1983;-60
2022/04/08 02:25:50;;;;;;;;;;;;;;;;;;5120298;27;1157;-60
2022/04/08 02:28:15;;;;;;;;;;;;;;;;;;5156012;27;927;-60
2022/04/08 02:30:40;;;;;;;;;;;;;;;;;;5137435;27;897;-60
2022/04/08 02:33:05;;;;;;;;;;;;;;;;;;5156164;27;986;-59
2022/04/08 02:35:31;;;;;;;;;;;;;;;;;;5156052;27;1957;-59
2022/04/08 02:37:57;;;;;;;;;;;;;;;;;;5155959;27;990;-59
2022/04/08 02:40:22;;;;;;;;;;;;;;;;;;5156277;27;808;-60
2022/04/08 02:42:47;;;;;;;;;;;;;;;;;;5136816;27;832;-60
2022/04/08 02:45:13;;;;;;;;;;;;;;;;;;5155758;27;891;-59
2022/04/08 02:47:41;;;;;;;;;;;;;;;;;;5156014;27;891;-60
2022/04/08 02:50:07;;;;;;;;;;;;;;;;;;5155196;27;794;-60
2022/04/08 02:52:33;;;;;;;;;;;;;;;;;;5155606;27;1128;-60
2022/04/08 02:54:58;;;;;;;;;;;;;;;;;;5155013;27;1938;-59
2022/04/08 02:57:23;;;;;;;;;;;;;;;;;;5136573;27;911;-60
2022/04/08 02:59:52;;;;;;;;;;;;;;;;;;5155229;27;824;-59
2022/04/08 03:02:18;;;;;;;;;;;;;;;;;;5155067;27;838;-59
2022/04/08 03:04:43;;;;;;;;;;;;;;;;;;5155037;27;955;-60
2022/04/08 03:07:08;;;;;;;;;;;;;;;;;;5155645;27;1005;-60
2022/04/08 03:09:33;;;;;;;;;;;;;;;;;;5155143;27;765;-60
2022/04/08 03:11:59;;;;;;;;;;;;;;;;;;5154928;27;1046;-60
2022/04/08 03:14:24;;;;;;;;;;;;;;;;;;5136188;27;1968;-60
2022/04/08 03:16:50;;;;;;;;;;;;;;;;;;5155006;27;1025;-59
2022/04/08 03:19:18;;;;;;;;;;;;;;;;;;5135341;27;1054;-60
2022/04/08 03:21:43;;;;;;;;;;;;;;;;;;5136704;27;867;-60
2022/04/08 03:24:10;;;;;;;;;;;;;;;;;;5154770;27;922;-60
2022/04/08 03:26:35;;;;;;;;;;;;;;;;;;5154811;27;824;-60
2022/04/08 03:29:01;;;;;;;;;;;;;;;;;;5154714;27;824;-60
2022/04/08 03:31:26;;;;;;;;;;;;;;;;;;5154494;27;832;-60
2022/04/08 03:33:51;;;;;;;;;;;;;;;;;;5154727;27;1961;-59
2022/04/08 03:36:16;;;;;;;;;;;;;;;;;;5154578;27;1126;-60
2022/04/08 03:38:42;;;;;;;;;;;;;;;;;;5154683;27;827;-60
2022/04/08 03:41:07;;;;;;;;;;;;;;;;;;5154917;27;808;-58
2022/04/08 03:43:34;;;;;;;;;;;;;;;;;;5154634;27;866;-60
2022/04/08 03:45:59;;;;;;;;;;;;;;;;;;5154418;27;860;-59
2022/04/08 03:48:24;;;;;;;;;;;;;;;;;;5154998;27;915;-59
2022/04/08 03:50:50;;;;;;;;;;;;;;;;;;5154871;27;830;-60
2022/04/08 03:53:16;;;;;;;;;;;;;;;;;;5154714;27;852;-59
2022/04/08 03:55:41;;;;;;;;;;;;;;;;;;5154367;27;1959;-59
2022/04/08 03:58:08;;;;;;;;;;;;;;;;;;5136279;27;1384;-60
2022/04/08 04:00:33;;;;;;;;;;;;;;;;;;5154444;27;1017;-60
2022/04/08 04:02:58;;;;;;;;;;;;;;;;;;5154612;27;950;-59
2022/04/08 04:05:23;;;;;;;;;;;;;;;;;;5155198;27;1030;-60
2022/04/08 04:07:48;;;;;;;;;;;;;;;;;;5154553;27;847;-59
2022/04/08 04:10:14;;;;;;;;;;;;;;;;;;5154964;27;1003;-59
2022/04/08 04:12:41;;;;;;;;;;;;;;;;;;5154378;27;1130;-59
2022/04/08 04:15:08;;;;;;;;;;;;;;;;;;5154481;27;1907;-59
2022/04/08 04:17:33;;;;;;;;;;;;;;;;;;5154219;27;828;-59
2022/04/08 04:19:58;;;;;;;;;;;;;;;;;;5154023;27;927;-61
2022/04/08 04:22:24;;;;;;;;;;;;;;;;;;5135698;27;978;-60
2022/04/08 04:24:49;;;;;;;;;;;;;;;;;;5135397;27;880;-59
2022/04/08 04:27:15;;;;;;;;;;;;;;;;;;5153908;27;844;-60
2022/04/08 04:29:40;;;;;;;;;;;;;;;;;;5153575;27;828;-59
2022/04/08 04:32:06;;;;;;;;;;;;;;;;;;5134820;27;916;-59
2022/04/08 04:34:33;;;;;;;;;;;;;;;;;;5153223;27;1972;-60
2022/04/08 04:36:58;;;;;;;;;;;;;;;;;;5153232;27;1059;-59
2022/04/08 04:39:24;;;;;;;;;;;;;;;;;;5153513;27;918;-59
2022/04/08 04:41:49;;;;;;;;;;;;;;;;;;5134971;27;1301;-59
2022/04/08 04:44:14;;;;;;;;;;;;;;;;;;5153531;27;947;-60
2022/04/08 04:46:40;;;;;;;;;;;;;;;;;;5153135;27;891;-60
2022/04/08 04:49:05;;;;;;;;;;;;;;;;;;5153191;27;793;-60
2022/04/08 04:51:30;;;;;;;;;;;;;;;;;;5153081;27;726;-60
2022/04/08 04:53:57;;;;;;;;;;;;;;;;;;5152442;27;1970;-59
2022/04/08 04:56:22;;;;;;;;;;;;;;;;;;5153234;27;831;-60
2022/04/08 04:58:47;;;;;;;;;;;;;;;;;;5153041;27;903;-60
2022/04/08 05:01:13;;;;;;;;;;;;;;;;;;5152951;27;863;-60
2022/04/08 05:03:38;;;;;;;;;;;;;;;;;;5152635;27;910;-59
2022/04/08 05:06:03;;;;;;;;;;;;;;;;;;5152826;27;899;-60
2022/04/08 05:08:28;;;;;;;;;;;;;;;;;;5152696;27;1041;-60
2022/04/08 05:10:54;;;;;;;;;;;;;;;;;;5152784;27;1042;-59
2022/04/08 05:13:19;;;;;;;;;;;;;;;;;;5134446;27;1844;-59
2022/04/08 05:15:45;;;;;;;;;;;;;;;;;;5151866;27;1950;-60
2022/04/08 05:18:10;;;;;;;;;;;;;;;;;;5152656;27;858;-59
2022/04/08 05:20:35;;;;;;;;;;;;;;;;;;5148381;27;1457;-60
2022/04/08 05:23:01;;;;;;;;;;;;;;;;;;5132152;27;947;-59
2022/04/08 05:25:26;;;;;;;;;;;;;;;;;;5132169;27;871;-60
2022/04/08 05:27:53;;;;;;;;;;;;;;;;;;5113584;27;844;-60
2022/04/08 05:30:18;;;;;;;;;;;;;;;;;;5132357;27;907;-60
2022/04/08 05:32:46;;;;;;;;;;;;;;;;;;5131258;27;1021;-60
2022/04/08 05:35:11;;;;;;;;;;;;;;;;;;5131801;27;1902;-60
2022/04/08 05:37:37;;;;;;;;;;;;;;;;;;5131633;27;1234;-59
2022/04/08 05:40:03;;;;;;;;;;;;;;;;;;5132263;27;825;-60
2022/04/08 05:42:28;;;;;;;;;;;;;;;;;;5131633;27;958;-59
2022/04/08 05:44:53;;;;;;;;;;;;;;;;;;5131917;27;887;-59
2022/04/08 05:47:19;;;;;;;;;;;;;;;;;;5132451;28;832;-59
2022/04/08 05:49:44;;;;;;;;;;;;;;;;;;5131586;28;991;-60
2022/04/08 05:52:09;;;;;;;;;;;;;;;;;;5131791;28;738;-60
2022/04/08 05:54:34;;;;;;;;;;;;;;;;;;5131921;28;1913;-60
2022/04/08 05:57:01;;;;;;;;;;;;;;;;;;5132104;28;769;-59
2022/04/08 05:59:29;;;;;;;;;;;;;;;;;;5131710;28;864;-60
2022/04/08 06:01:54;;;;;;;;;;;;;;;;;;5131239;28;832;-60
2022/04/08 06:04:21;;;;;;;;;;;;;;;;;;5132165;28;812;-60
2022/04/08 06:06:46;;;;;;;;;;;;;;;;;;5130918;28;804;-60
2022/04/08 06:09:11;;;;;;;;;;;;;;;;;;5131439;28;911;-59
2022/04/08 06:11:37;;;;;;;;;;;;;;;;;;5131006;28;820;-60
2022/04/08 06:14:02;;;;;;;;;;;;;;;;;;5131261;28;1913;-59
2022/04/08 06:16:27;;;;;;;;;;;;;;;;;;5131279;28;761;-60
2022/04/08 06:18:53;;;;;;;;;;;;;;;;;;5131276;28;801;-60
2022/04/08 06:21:18;;;;;;;;;;;;;;;;;;5131093;28;864;-60
2022/04/08 06:23:43;;;;;;;;;;;;;;;;;;5131048;28;1033;-60
2022/04/08 06:26:09;;;;;;;;;;;;;;;;;;5131023;28;911;-60
2022/04/08 06:28:35;;;;;;;;;;;;;;;;;;5131635;28;828;-59
2022/04/08 06:31:00;;;;;;;;;;;;;;;;;;5131464;28;1091;-59
2022/04/08 06:33:25;;;;;;;;;;;;;;;;;;5131251;28;919;-60
2022/04/08 06:35:50;;;;;;;;;;;;;;;;;;5130556;28;1895;-59
2022/04/08 06:38:16;;;;;;;;;;;;;;;;;;5131811;28;1141;-60
2022/04/08 06:40:41;;;;;;;;;;;;;;;;;;5131037;28;1677;-60
2022/04/08 06:43:07;;;;;;;;;;;;;;;;;;5131180;28;907;-60
2022/04/08 06:45:33;;;;;;;;;;;;;;;;;;5131117;28;824;-59
2022/04/08 06:47:58;;;;;;;;;;;;;;;;;;5130594;28;828;-59
2022/04/08 06:50:25;;;;;;;;;;;;;;;;;;5113107;28;840;-59
2022/04/08 06:52:51;;;;;;;;;;;;;;;;;;5112633;28;901;-59
2022/04/08 06:55:16;;;;;;;;;;;;;;;;;;5134944;27;1910;-59
2022/04/08 06:57:42;;;;;;;;;;;;;;;;;;5134673;27;828;-59
2022/04/08 07:00:08;;;;;;;;;;;;;;;;;;5116161;27;1563;-58
2022/04/08 07:02:34;;;;;;;;;;;;;;;;;;5134839;27;1153;-58
2022/04/08 07:04:59;;;;;;;;;;;;;;;;;;5135080;27;923;-59
2022/04/08 07:07:28;;;;;;;;;;;;;;;;;;5134884;27;931;-58
2022/04/08 07:09:54;;;;;;;;;;;;;;;;;;5133892;27;903;-62
2022/04/08 07:12:19;;;;;;;;;;;;;;;;;;5103128;27;1200;-58
2022/04/08 07:14:45;;;;;;;;;;;;;;;;;;5137859;27;1964;-58
2022/04/08 07:17:10;;;;;;;;;;;;;;;;;;5134633;27;825;-59
2022/04/08 07:19:35;;;;;;;;;;;;;;;;;;5134638;27;761;-59
2022/04/08 07:22:00;;;;;;;;;;;;;;;;;;5134069;27;863;-59
2022/04/08 07:24:26;;;;;;;;;;;;;;;;;;5135007;27;899;-59
2022/04/08 07:26:52;;;;;;;;;;;;;;;;;;5134341;27;859;-59
2022/04/08 07:29:17;;;;;;;;;;;;;;;;;;5135007;27;928;-59
2022/04/08 07:31:43;;;;;;;;;;;;;;;;;;5134601;27;816;-59
2022/04/08 07:34:08;;;;;;;;;;;;;;;;;;5116118;27;1970;-59
2022/04/08 07:36:34;;;;;;;;;;;;;;;;;;5134580;27;1143;-58
2022/04/08 07:38:59;;;;;;;;;;;;;;;;;;5134353;27;931;-59
2022/04/08 07:41:24;;;;;;;;;;;;;;;;;;5134800;27;915;-59
2022/04/08 07:43:50;;;;;;;;;;;;;;;;;;5115636;27;1402;-59
2022/04/08 07:46:15;;;;;;;;;;;;;;;;;;5134243;27;773;-59
2022/04/08 07:48:40;;;;;;;;;;;;;;;;;;5116091;27;1222;-59
2022/04/08 07:51:06;;;;;;;;;;;;;;;;;;5134077;27;927;-59
2022/04/08 07:53:32;;;;;;;;;;;;;;;;;;5134122;27;1145;-58
2022/04/08 07:55:57;;;;;;;;;;;;;;;;;;5114801;27;1997;-58
2022/04/08 07:58:23;;;;;;;;;;;;;;;;;;5134275;27;899;-59
2022/04/08 08:00:48;;;;;;;;;;;;;;;;;;5133898;27;826;-59
2022/04/08 08:03:15;;;;;;;;;;;;;;;;;;5133960;27;927;-59
2022/04/08 08:05:40;;;;;;;;;;;;;;;;;;5133012;27;902;-58
2022/04/08 08:08:06;;;;;;;;;;;;;;;;;;5097878;27;1101;-58
2022/04/08 08:10:32;;;;;;;;;;;;;;;;;;5133678;27;836;-59
2022/04/08 08:13:00;;;;;;;;;;;;;;;;;;5132793;27;649;-59
2022/04/08 08:15:25;;;;;;;;;;;;;;;;;;5133585;27;1914;-59
2022/04/08 08:17:51;;;;;;;;;;;;;;;;;;5133356;27;862;-59
2022/04/08 08:20:17;;;;;;;;;;;;;;;;;;5133554;27;905;-58
2022/04/08 08:22:43;;;;;;;;;;;;;;;;;;5133908;27;824;-59
2022/04/08 08:25:09;;;;;;;;;;;;;;;;;;5132907;27;808;-59
2022/04/08 08:27:42;;;;;;;;;;;;;;;;;;5133419;27;852;-58
2022/04/08 08:30:10;;;;;;;;;;;;;;;;;;5132753;27;903;-59
2022/04/08 08:32:35;;;;;;;;;;;;;;;;;;5133083;27;910;-59
2022/04/08 08:35:01;;;;;;;;;;;;;;;;;;5132586;27;1965;-59
2022/04/08 08:37:26;;;;;;;;;;;;;;;;;;5132674;27;1274;-59
2022/04/08 08:39:55;;;;;;;;;;;;;;;;;;5133040;27;863;-59
2022/04/08 08:42:21;;;;;;;;;;;;;;;;;;5133410;27;827;-59
2022/04/08 08:44:46;;;;;;;;;;;;;;;;;;5132994;27;974;-59
2022/04/08 08:47:12;;;;;;;;;;;;;;;;;;5132551;27;1215;-59
2022/04/08 08:49:38;;;;;;;;;;;;;;;;;;5132868;27;860;-59
2022/04/08 08:52:06;;;;;;;;;;;;;;;;;;5132326;27;867;-58
2022/04/08 08:54:32;;;;;;;;;;;;;;;;;;5132652;27;1893;-59
2022/04/08 08:57:00;;;;;;;;;;;;;;;;;;5132297;27;816;-59
2022/04/08 08:59:26;;;;;;;;;;;;;;;;;;5132568;27;907;-59
2022/04/08 09:01:59;;;;;;;;;;;;;;;;;;5132386;27;1268;-59
2022/04/08 09:04:26;;;;;;;;;;;;;;;;;;5152610;27;895;-59
2022/04/08 09:06:51;;;;;;;;;;;;;;;;;;5153452;27;874;-58
2022/04/08 09:09:26;;;;;;;;;;;;;;;;;;5153789;27;946;-59
2022/04/08 09:11:52;;;;;;;;;;;;;;;;;;5153952;27;812;-59
2022/04/08 09:14:25;;;;;;;;;;;;;;;;;;5153425;27;1963;-58
2022/04/08 09:16:58;;;;;;;;;;;;;;;;;;5152358;27;926;-59
2022/04/08 09:19:24;;;;;;;;;;;;;;;;;;5153506;27;836;-59
2022/04/08 09:21:51;;;;;;;;;;;;;;;;;;5134419;27;1191;-59
2022/04/08 09:24:17;;;;;;;;;;;;;;;;;;5153150;27;816;-59
2022/04/08 09:26:42;;;;;;;;;;;;;;;;;;5153649;27;954;-59
2022/04/08 09:29:07;;;;;;;;;;;;;;;;;;5153001;27;836;-59
2022/04/08 09:31:32;;;;;;;;;;;;;;;;;;5134953;27;913;-59
2022/04/08 09:33:58;;;;;;;;;;;;;;;;;;5153324;27;1905;-60
2022/04/08 09:36:30;;;;;;;;;;;;;;;;;;5134768;27;1218;-58
2022/04/08 09:38:56;;;;;;;;;;;;;;;;;;5153282;27;871;-62
2022/04/08 09:41:25;;;;;;;;;;;;;;;;;;5152756;27;891;-58
2022/04/08 09:43:51;;;;;;;;;;;;;;;;;;5152872;27;898;-58
2022/04/08 09:46:17;;;;;;;;;;;;;;;;;;5152932;27;872;-60
2022/04/08 09:48:42;;;;;;;;;;;;;;;;;;5153200;27;840;-61
2022/04/08 09:51:11;;;;;;;;;;;;;;;;;;5152376;27;788;-59
2022/04/08 09:53:41;;;;;;;;;;;;;;;;;;5152481;27;848;-59
2022/04/08 09:56:09;;;;;;;;;;;;;;;;;;5151869;27;1918;-59
2022/04/08 09:58:36;;;;;;;;;;;;;;;;;;5152130;27;847;-59
2022/04/08 10:01:02;;;;;;;;;;;;;;;;;;5152309;27;825;-59
2022/04/08 10:03:27;;;;;;;;;;;;;;;;;;5152402;27;940;-59
2022/04/08 10:05:53;;;;;;;;;;;;;;;;;;5151716;27;1256;-60
2022/04/08 10:08:19;;;;;;;;;;;;;;;;;;5150675;27;925;-60
2022/04/08 10:10:48;;;;;;;;;;;;;;;;;;5151997;27;851;-59
2022/04/08 10:13:13;;;;;;;;;;;;;;;;;;5152183;27;832;-59
2022/04/08 10:15:59;;;;;;;;;;;;;;;;;;5152562;27;1902;-60
2022/04/08 10:18:32;;;;;;;;;;;;;;;;;;5133739;27;1557;-59
2022/04/08 10:20:58;;;;;;;;;;;;;;;;;;5133422;27;1292;-59
2022/04/08 10:23:33;;;;;;;;;;;;;;;;;;5152422;27;978;-59
2022/04/08 10:25:59;;;;;;;;;;;;;;;;;;5152245;27;827;-59
2022/04/08 10:28:33;;;;;;;;;;;;;;;;;;5154606;27;922;-60
2022/04/08 10:30:59;;;;;;;;;;;;;;;;;;5156493;27;970;-60
2022/04/08 10:33:26;;;;;;;;;;;;;;;;;;5156680;27;1031;-59
2022/04/08 10:35:55;;;;;;;;;;;;;;;;;;5155981;27;1897;-59
2022/04/08 10:38:20;;;;;;;;;;;;;;;;;;5156524;27;863;-60
2022/04/08 10:40:56;;;;;;;;;;;;;;;;;;5156510;27;974;-59
2022/04/08 10:43:21;;;;;;;;;;;;;;;;;;5156165;27;916;-59
2022/04/08 10:45:59;;;;;;;;;;;;;;;;;;5137808;27;2172;-59
2022/04/08 10:48:33;;;;;;;;;;;;;;;;;;5137304;27;887;-60
2022/04/08 10:51:06;;;;;;;;;;;;;;;;;;5137236;27;1157;-59
2022/04/08 10:53:34;;;;;;;;;;;;;;;;;;5155981;27;912;-59
2022/04/08 10:56:10;;;;;;;;;;;;;;;;;;5156431;27;1910;-60
2022/04/08 10:58:49;;;;;;;;;;;;;;;;;;5156262;27;908;-59
2022/04/08 11:01:15;;;;;;;;;;;;;;;;;;5156275;27;907;-60
2022/04/08 11:03:45;;;;;;;;;;;;;;;;;;5156374;27;816;-60
2022/04/08 11:06:11;;;;;;;;;;;;;;;;;;5155871;27;922;-60
2022/04/08 11:08:37;;;;;;;;;;;;;;;;;;5155745;27;895;-60
2022/04/08 11:11:02;;;;;;;;;;;;;;;;;;5155837;27;957;-59
2022/04/08 11:13:27;;;;;;;;;;;;;;;;;;5155696;27;1057;-59
2022/04/08 11:15:53;;;;;;;;;;;;;;;;;;5155543;27;1897;-59
2022/04/08 11:18:19;;;;;;;;;;;;;;;;;;5155936;27;954;-59
2022/04/08 11:20:50;;;;;;;;;;;;;;;;;;5136963;27;1543;-60
2022/04/08 11:23:25;;;;;;;;;;;;;;;;;;5155596;27;891;-59
2022/04/08 11:25:51;;;;;;;;;;;;;;;;;;5155596;27;879;-59
2022/04/08 11:28:16;;;;;;;;;;;;;;;;;;5155400;27;915;-59
2022/04/08 11:30:42;;;;;;;;;;;;;;;;;;5154654;27;812;-59
2022/04/08 11:33:15;;;;;;;;;;;;;;;;;;5154366;27;1119;-59
2022/04/08 11:35:40;;;;;;;;;;;;;;;;;;5135912;27;1902;-60
2022/04/08 11:38:15;;;;;;;;;;;;;;;;;;5154345;27;998;-60
2022/04/08 11:40:41;;;;;;;;;;;;;;;;;;5154357;27;820;-59
2022/04/08 11:43:06;;;;;;;;;;;;;;;;;;5154485;27;1072;-60
2022/04/08 11:45:31;;;;;;;;;;;;;;;;;;5154495;27;1065;-59
2022/04/08 11:47:57;;;;;;;;;;;;;;;;;;5154336;27;1022;-59
2022/04/08 11:50:24;;;;;;;;;;;;;;;;;;5154794;27;936;-60
2022/04/08 11:52:56;;;;;;;;;;;;;;;;;;5135371;27;1809;-60
2022/04/08 11:55:25;;;;;;;;;;;;;;;;;;5154540;27;1961;-59
2022/04/08 11:57:51;;;;;;;;;;;;;;;;;;5154620;27;848;-60
2022/04/08 12:00:18;;;;;;;;;;;;;;;;;;5135403;27;1444;-59
2022/04/08 12:02:43;;;;;;;;;;;;;;;;;;5154829;27;862;-60
2022/04/08 12:05:08;;;;;;;;;;;;;;;;;;5153961;27;895;-60
2022/04/08 12:07:34;;;;;;;;;;;;;;;;;;5153762;27;1231;-60
2022/04/08 12:10:00;;;;;;;;;;;;;;;;;;5153848;27;870;-60
2022/04/08 12:12:27;;;;;;;;;;;;;;;;;;5154013;27;837;-60
2022/04/08 12:14:53;;;;;;;;;;;;;;;;;;5153702;27;1901;-59
2022/04/08 12:17:18;;;;;;;;;;;;;;;;;;5154072;27;848;-61
2022/04/08 12:19:44;;;;;;;;;;;;;;;;;;5153994;27;840;-60
2022/04/08 12:22:10;;;;;;;;;;;;;;;;;;5153333;27;819;-60
2022/04/08 12:24:35;;;;;;;;;;;;;;;;;;5153551;27;849;-60
2022/04/08 12:27:00;;;;;;;;;;;;;;;;;;5153712;27;1193;-60
2022/04/08 12:29:29;;;;;;;;;;;;;;;;;;5153821;27;879;-60
2022/04/08 12:31:55;;;;;;;;;;;;;;;;;;5134738;27;1261;-60
2022/04/08 12:34:21;;;;;;;;;;;;;;;;;;5144849;27;1898;-60
2022/04/08 12:36:47;;;;;;;;;;;;;;;;;;5133006;27;1257;-60
2022/04/08 12:39:13;;;;;;;;;;;;;;;;;;5133060;27;867;-61
2022/04/08 12:41:47;;;;;;;;;;;;;;;;;;5133029;27;765;-61
2022/04/08 12:44:13;;;;;;;;;;;;;;;;;;5133031;27;1201;-60
2022/04/08 12:46:38;;;;;;;;;;;;;;;;;;5133173;27;823;-60
2022/04/08 12:49:04;;;;;;;;;;;;;;;;;;5114168;27;666;-60
2022/04/08 12:51:30;;;;;;;;;;;;;;;;;;5131603;27;908;-60
2022/04/08 12:53:56;;;;;;;;;;;;;;;;;;5132877;27;916;-61
2022/04/08 12:56:21;;;;;;;;;;;;;;;;;;5133212;27;1905;-60
2022/04/08 12:58:46;;;;;;;;;;;;;;;;;;5114330;27;1772;-60
2022/04/08 13:01:12;;;;;;;;;;;;;;;;;;5132127;27;1119;-61
2022/04/08 13:03:37;;;;;;;;;;;;;;;;;;5131763;27;855;-61
2022/04/08 13:06:03;;;;;;;;;;;;;;;;;;5132403;27;1158;-60
2022/04/08 13:08:28;;;;;;;;;;;;;;;;;;5132163;27;967;-60
2022/04/08 13:10:53;;;;;;;;;;;;;;;;;;5113432;27;963;-60
2022/04/08 13:13:20;;;;;;;;;;;;;;;;;;5132447;27;1014;-60
2022/04/08 13:15:45;;;;;;;;;;;;;;;;;;5132010;27;1905;-60
2022/04/08 13:18:11;;;;;;;;;;;;;;;;;;5132430;27;938;-60
2022/04/08 13:20:36;;;;;;;;;;;;;;;;;;5131861;27;946;-60
2022/04/08 13:23:01;;;;;;;;;;;;;;;;;;5131893;27;828;-60
2022/04/08 13:25:27;;;;;;;;;;;;;;;;;;5133105;27;855;-60
2022/04/08 13:27:53;;;;;;;;;;;;;;;;;;5114491;27;832;-61
2022/04/08 13:30:19;;;;;;;;;;;;;;;;;;5133107;27;887;-61
2022/04/08 13:32:44;;;;;;;;;;;;;;;;;;5132628;27;994;-61
2022/04/08 13:35:09;;;;;;;;;;;;;;;;;;5133089;27;1968;-60
2022/04/08 13:37:36;;;;;;;;;;;;;;;;;;5132201;27;1271;-60
2022/04/08 13:40:02;;;;;;;;;;;;;;;;;;5132890;27;853;-61
2022/04/08 13:42:28;;;;;;;;;;;;;;;;;;5114315;28;806;-60
2022/04/08 13:44:53;;;;;;;;;;;;;;;;;;5131536;27;815;-60
2022/04/08 13:47:18;;;;;;;;;;;;;;;;;;5132073;27;906;-60
2022/04/08 13:49:43;;;;;;;;;;;;;;;;;;5113080;28;1321;-60
2022/04/08 13:52:08;;;;;;;;;;;;;;;;;;5131820;27;918;-60
2022/04/08 13:54:34;;;;;;;;;;;;;;;;;;5131763;28;1979;-60
2022/04/08 13:56:59;;;;;;;;;;;;;;;;;;5132053;28;890;-60
2022/04/08 13:59:25;;;;;;;;;;;;;;;;;;5131820;28;1012;-60
2022/04/08 14:01:51;;;;;;;;;;;;;;;;;;5132044;27;867;-60
2022/04/08 14:04:16;;;;;;;;;;;;;;;;;;5117603;27;958;-60
2022/04/08 14:06:41;;;;;;;;;;;;;;;;;;5136088;27;898;-60
2022/04/08 14:09:07;;;;;;;;;;;;;;;;;;5135938;27;804;-60
2022/04/08 14:11:33;;;;;;;;;;;;;;;;;;5136335;27;943;-60
2022/04/08 14:13:58;;;;;;;;;;;;;;;;;;5117540;27;1321;-60
2022/04/08 14:16:23;;;;;;;;;;;;;;;;;;5136606;27;1889;-60
2022/04/08 14:18:49;;;;;;;;;;;;;;;;;;5135792;27;875;-59
2022/04/08 14:21:15;;;;;;;;;;;;;;;;;;5136099;27;797;-59
2022/04/08 14:23:42;;;;;;;;;;;;;;;;;;5138400;27;1150;-59
2022/04/08 14:26:07;;;;;;;;;;;;;;;;;;5137640;27;1162;-59
2022/04/08 14:28:34;;;;;;;;;;;;;;;;;;5135881;27;947;-59
2022/04/08 14:30:59;;;;;;;;;;;;;;;;;;5116805;27;1309;-58
2022/04/08 14:33:24;;;;;;;;;;;;;;;;;;5135527;27;923;-58
2022/04/08 14:35:50;;;;;;;;;;;;;;;;;;5135704;27;1964;-58
2022/04/08 14:38:15;;;;;;;;;;;;;;;;;;5135470;27;844;-60
2022/04/08 14:40:40;;;;;;;;;;;;;;;;;;5135712;27;879;-60
2022/04/08 14:43:06;;;;;;;;;;;;;;;;;;5135300;27;864;-60
2022/04/08 14:45:32;;;;;;;;;;;;;;;;;;5116681;27;1788;-60
2022/04/08 14:47:57;;;;;;;;;;;;;;;;;;5134769;27;804;-59
2022/04/08 14:50:23;;;;;;;;;;;;;;;;;;5135314;27;979;-59
2022/04/08 14:52:48;;;;;;;;;;;;;;;;;;5134475;27;859;-59
2022/04/08 14:55:13;;;;;;;;;;;;;;;;;;5134617;27;1969;-59
2022/04/08 14:57:39;;;;;;;;;;;;;;;;;;5134846;27;801;-59
2022/04/08 15:00:05;;;;;;;;;;;;;;;;;;5135091;27;740;-60
2022/04/08 15:02:30;;;;;;;;;;;;;;;;;;5134731;27;899;-60
2022/04/08 15:04:55;;;;;;;;;;;;;;;;;;5134428;27;923;-60
2022/04/08 15:07:21;;;;;;;;;;;;;;;;;;5135141;27;986;-60
2022/04/08 15:09:47;;;;;;;;;;;;;;;;;;5116203;27;859;-60
2022/04/08 15:12:13;;;;;;;;;;;;;;;;;;5134443;27;883;-60
2022/04/08 15:14:39;;;;;;;;;;;;;;;;;;5133486;27;1885;-60
2022/04/08 15:17:04;;;;;;;;;;;;;;;;;;5133795;27;876;-60
2022/04/08 15:19:29;;;;;;;;;;;;;;;;;;5134483;27;871;-60
2022/04/08 15:21:55;;;;;;;;;;;;;;;;;;5133787;27;875;-60
2022/04/08 15:24:20;;;;;;;;;;;;;;;;;;5133994;27;1232;-60
2022/04/08 15:26:46;;;;;;;;;;;;;;;;;;5133614;27;873;-60
2022/04/08 15:29:11;;;;;;;;;;;;;;;;;;5115579;27;898;-59
2022/04/08 15:31:44;;;;;;;;;;;;;;;;;;5098691;27;896;-60
2022/04/08 15:34:10;;;;;;;;;;;;;;;;;;5133819;27;1901;-60
2022/04/08 15:36:36;;;;;;;;;;;;;;;;;;5115283;27;1135;-60
2022/04/08 15:39:01;;;;;;;;;;;;;;;;;;5133681;27;873;-60
2022/04/08 15:41:26;;;;;;;;;;;;;;;;;;5133932;27;915;-60
2022/04/08 15:43:51;;;;;;;;;;;;;;;;;;5134100;27;925;-60
2022/04/08 15:46:18;;;;;;;;;;;;;;;;;;5134226;27;788;-60
2022/04/08 15:48:45;;;;;;;;;;;;;;;;;;5133882;27;847;-60
2022/04/08 15:51:12;;;;;;;;;;;;;;;;;;5133563;27;876;-60
2022/04/08 15:53:37;;;;;;;;;;;;;;;;;;5134048;27;820;-60
2022/04/08 15:56:02;;;;;;;;;;;;;;;;;;5133279;27;1968;-60
2022/04/08 15:58:27;;;;;;;;;;;;;;;;;;5115218;27;1571;-60
2022/04/08 16:00:53;;;;;;;;;;;;;;;;;;5133556;27;875;-60
2022/04/08 16:03:18;;;;;;;;;;;;;;;;;;5133490;27;808;-60
2022/04/08 16:05:43;;;;;;;;;;;;;;;;;;5134027;27;840;-60
2022/04/08 16:08:09;;;;;;;;;;;;;;;;;;5133632;27;887;-60
2022/04/08 16:10:35;;;;;;;;;;;;;;;;;;5134119;27;765;-60
2022/04/08 16:13:00;;;;;;;;;;;;;;;;;;5133757;27;1090;-60
2022/04/08 16:15:26;;;;;;;;;;;;;;;;;;5133258;27;2322;-60
2022/04/08 16:17:51;;;;;;;;;;;;;;;;;;5133127;27;962;-60
2022/04/08 16:20:17;;;;;;;;;;;;;;;;;;5133459;27;991;-59
2022/04/08 16:22:43;;;;;;;;;;;;;;;;;;5133894;27;867;-60
2022/04/08 16:25:08;;;;;;;;;;;;;;;;;;5133058;27;765;-59
2022/04/08 16:27:33;;;;;;;;;;;;;;;;;;5114865;27;822;-60
2022/04/08 16:29:59;;;;;;;;;;;;;;;;;;5132659;27;1218;-60
2022/04/08 16:32:24;;;;;;;;;;;;;;;;;;5133115;27;1024;-61
2022/04/08 16:34:55;;;;;;;;;;;;;;;;;;5115169;27;1910;-60
2022/04/08 16:37:21;;;;;;;;;;;;;;;;;;5132619;27;1226;-60
2022/04/08 16:39:47;;;;;;;;;;;;;;;;;;5114251;27;1617;-60
2022/04/08 16:42:13;;;;;;;;;;;;;;;;;;5114113;27;841;-59
2022/04/08 16:44:38;;;;;;;;;;;;;;;;;;5133038;27;832;-59
2022/04/08 16:47:04;;;;;;;;;;;;;;;;;;5131873;27;923;-60
2022/04/08 16:49:29;;;;;;;;;;;;;;;;;;5132649;27;832;-60
2022/04/08 16:51:54;;;;;;;;;;;;;;;;;;5131924;27;911;-60
2022/04/08 16:54:20;;;;;;;;;;;;;;;;;;5096776;27;1913;-59
2022/04/08 16:56:45;;;;;;;;;;;;;;;;;;5131618;27;1513;-58
2022/04/08 16:59:11;;;;;;;;;;;;;;;;;;5093626;28;1329;-60
2022/04/08 17:01:36;;;;;;;;;;;;;;;;;;5093794;28;1262;-59
2022/04/08 17:04:02;;;;;;;;;;;;;;;;;;5111390;28;950;-59
2022/04/08 17:06:28;;;;;;;;;;;;;;;;;;5112183;28;852;-59